sensor_id;sensor_type;location;lat;lon;timestamp;pressure;altitude;pressure_sealevel;temperature;humidity
9538;BME280;4807;48.024;11.726;2023-01-27T00:02:18;94971.38;;;-0.66;81.04
9538;BME280;4807;48.024;11.726;2023-01-27T00:05:27;94970.53;;;-0.67;81.25
9538;BME280;4807;48.024;11.726;2023-01-27T00:08:35;94976.78;;;-0.58;80.92
9538;BME280;4807;48.024;11.726;2023-01-27T00:11:45;94973.59;;;-0.92;81.18
9538;BME280;4807;48.024;11.726;2023-01-27T00:15:13;94981.56;;;-0.63;80.81
9538;BME280;4807;48.024;11.726;2023-01-27T00:18:22;94969.75;;;-0.58;79.90
9538;BME280;4807;48.024;11.726;2023-01-27T00:21:30;94974.28;;;-0.60;80.21
9538;BME280;4807;48.024;11.726;2023-01-27T00:24:56;94979.50;;;-0.60;81.38
9538;BME280;4807;48.024;11.726;2023-01-27T00:28:06;94966.59;;;-0.52;80.86
9538;BME280;4807;48.024;11.726;2023-01-27T00:31:16;94975.66;;;-0.56;80.21
9538;BME280;4807;48.024;11.726;2023-01-27T00:34:42;94954.75;;;-0.56;80.55
9538;BME280;4807;48.024;11.726;2023-01-27T00:37:50;94958.59;;;-0.60;81.17
9538;BME280;4807;48.024;11.726;2023-01-27T00:40:59;94958.84;;;-0.63;80.77
9538;BME280;4807;48.024;11.726;2023-01-27T00:44:27;94959.06;;;-0.85;81.50
9538;BME280;4807;48.024;11.726;2023-01-27T00:47:36;94964.81;;;-0.91;81.63
9538;BME280;4807;48.024;11.726;2023-01-27T00:50:44;94963.66;;;-0.68;80.88
9538;BME280;4807;48.024;11.726;2023-01-27T00:53:52;94966.53;;;-0.71;81.24
9538;BME280;4807;48.024;11.726;2023-01-27T00:57:00;94966.81;;;-0.74;81.20
9538;BME280;4807;48.024;11.726;2023-01-27T01:00:13;94966.28;;;-0.68;80.86
9538;BME280;4807;48.024;11.726;2023-01-27T01:03:23;94969.84;;;-0.69;80.46
9538;BME280;4807;48.024;11.726;2023-01-27T01:06:31;94976.41;;;-0.84;82.39
9538;BME280;4807;48.024;11.726;2023-01-27T01:09:39;94974.78;;;-0.75;81.79
9538;BME280;4807;48.024;11.726;2023-01-27T01:12:48;94978.06;;;-0.83;81.55
9538;BME280;4807;48.024;11.726;2023-01-27T01:16:04;94984.31;;;-0.95;81.85
9538;BME280;4807;48.024;11.726;2023-01-27T01:19:13;94982.53;;;-0.95;81.40
9538;BME280;4807;48.024;11.726;2023-01-27T01:22:21;94976.44;;;-0.74;81.62
9538;BME280;4807;48.024;11.726;2023-01-27T01:25:31;94985.91;;;-0.83;80.71
9538;BME280;4807;48.024;11.726;2023-01-27T01:28:42;94983.47;;;-1.05;82.08
9538;BME280;4807;48.024;11.726;2023-01-27T01:31:51;94989.53;;;-0.95;82.67
9538;BME280;4807;48.024;11.726;2023-01-27T01:34:59;94979.72;;;-0.82;81.78
9538;BME280;4807;48.024;11.726;2023-01-27T01:38:08;94983.28;;;-0.83;81.23
9538;BME280;4807;48.024;11.726;2023-01-27T01:41:19;94976.66;;;-0.87;82.05
9538;BME280;4807;48.024;11.726;2023-01-27T01:44:30;94977.81;;;-1.01;81.28
9538;BME280;4807;48.024;11.726;2023-01-27T01:47:40;94965.78;;;-1.13;81.64
9538;BME280;4807;48.024;11.726;2023-01-27T01:50:54;94967.78;;;-1.26;82.95
9538;BME280;4807;48.024;11.726;2023-01-27T01:54:12;94966.25;;;-1.29;83.53
9538;BME280;4807;48.024;11.726;2023-01-27T01:57:27;94960.31;;;-1.10;83.24
9538;BME280;4807;48.024;11.726;2023-01-27T02:00:39;94940.25;;;-1.09;83.60
9538;BME280;4807;48.024;11.726;2023-01-27T02:03:55;94942.16;;;-1.11;82.95
9538;BME280;4807;48.024;11.726;2023-01-27T02:07:11;94936.44;;;-1.05;82.52
9538;BME280;4807;48.024;11.726;2023-01-27T02:10:23;94955.06;;;-0.89;82.18
9538;BME280;4807;48.024;11.726;2023-01-27T02:13:31;94959.31;;;-0.88;82.98
9538;BME280;4807;48.024;11.726;2023-01-27T02:16:43;94948.31;;;-0.92;82.47
9538;BME280;4807;48.024;11.726;2023-01-27T02:20:04;94947.38;;;-0.81;82.51
9538;BME280;4807;48.024;11.726;2023-01-27T02:23:28;94948.44;;;-0.93;82.06
9538;BME280;4807;48.024;11.726;2023-01-27T02:26:43;94951.63;;;-0.90;81.99
9538;BME280;4807;48.024;11.726;2023-01-27T02:29:51;94955.91;;;-0.79;82.23
9538;BME280;4807;48.024;11.726;2023-01-27T02:33:00;94952.47;;;-0.80;82.25
9538;BME280;4807;48.024;11.726;2023-01-27T02:36:13;94949.56;;;-0.86;82.91
9538;BME280;4807;48.024;11.726;2023-01-27T02:39:30;94956.59;;;-0.77;81.76
9538;BME280;4807;48.024;11.726;2023-01-27T02:42:41;94952.69;;;-0.92;82.43
9538;BME280;4807;48.024;11.726;2023-01-27T02:45:50;94947.66;;;-0.84;81.99
9538;BME280;4807;48.024;11.726;2023-01-27T02:48:58;94951.63;;;-0.80;81.00
9538;BME280;4807;48.024;11.726;2023-01-27T02:52:07;94954.19;;;-0.99;81.32
9538;BME280;4807;48.024;11.726;2023-01-27T02:55:16;94942.16;;;-1.11;83.16
9538;BME280;4807;48.024;11.726;2023-01-27T02:58:26;94936.69;;;-1.29;82.84
9538;BME280;4807;48.024;11.726;2023-01-27T03:01:45;94951.28;;;-0.96;81.84
9538;BME280;4807;48.024;11.726;2023-01-27T03:04:54;94945.41;;;-0.98;82.22
9538;BME280;4807;48.024;11.726;2023-01-27T03:08:03;94937.84;;;-0.92;82.22
9538;BME280;4807;48.024;11.726;2023-01-27T03:11:12;94941.28;;;-0.91;81.79
9538;BME280;4807;48.024;11.726;2023-01-27T03:14:21;94937.56;;;-0.98;82.34
9538;BME280;4807;48.024;11.726;2023-01-27T03:17:44;94949.13;;;-0.91;82.24
9538;BME280;4807;48.024;11.726;2023-01-27T03:21:10;94947.06;;;-0.88;82.06
9538;BME280;4807;48.024;11.726;2023-01-27T03:24:18;94936.59;;;-0.88;81.73
9538;BME280;4807;48.024;11.726;2023-01-27T03:27:27;94935.91;;;-1.30;83.47
9538;BME280;4807;48.024;11.726;2023-01-27T03:30:59;94934.94;;;-0.98;82.71
9538;BME280;4807;48.024;11.726;2023-01-27T03:34:17;94935.19;;;-1.01;82.60
9538;BME280;4807;48.024;11.726;2023-01-27T03:37:32;94935.19;;;-1.01;81.90
9538;BME280;4807;48.024;11.726;2023-01-27T03:40:59;94932.66;;;-1.12;83.45
9538;BME280;4807;48.024;11.726;2023-01-27T03:44:26;94927.78;;;-0.96;82.10
9538;BME280;4807;48.024;11.726;2023-01-27T03:47:54;94934.59;;;-1.05;81.88
9538;BME280;4807;48.024;11.726;2023-01-27T03:51:05;94927.09;;;-0.98;82.27
9538;BME280;4807;48.024;11.726;2023-01-27T03:54:14;94930.19;;;-0.84;81.19
9538;BME280;4807;48.024;11.726;2023-01-27T03:57:22;94922.88;;;-0.90;82.43
9538;BME280;4807;48.024;11.726;2023-01-27T04:00:31;94933.22;;;-0.79;81.80
9538;BME280;4807;48.024;11.726;2023-01-27T04:03:41;94935.41;;;-0.84;82.28
9538;BME280;4807;48.024;11.726;2023-01-27T04:07:08;94935.28;;;-0.82;82.79
9538;BME280;4807;48.024;11.726;2023-01-27T04:10:17;94931.41;;;-0.78;82.67
9538;BME280;4807;48.024;11.726;2023-01-27T04:13:25;94932.66;;;-0.82;82.18
9538;BME280;4807;48.024;11.726;2023-01-27T04:16:32;94927.28;;;-0.90;82.16
9538;BME280;4807;48.024;11.726;2023-01-27T04:19:44;94931.50;;;-0.99;82.38
9538;BME280;4807;48.024;11.726;2023-01-27T04:22:53;94928.47;;;-0.94;82.37
9538;BME280;4807;48.024;11.726;2023-01-27T04:26:03;94930.78;;;-1.01;82.97
9538;BME280;4807;48.024;11.726;2023-01-27T04:29:13;94931.88;;;-1.03;83.78
9538;BME280;4807;48.024;11.726;2023-01-27T04:32:21;94940.81;;;-1.06;82.85
9538;BME280;4807;48.024;11.726;2023-01-27T04:35:30;94934.31;;;-1.11;82.51
9538;BME280;4807;48.024;11.726;2023-01-27T04:38:44;94934.78;;;-0.97;83.11
9538;BME280;4807;48.024;11.726;2023-01-27T04:41:54;94931.09;;;-0.94;82.85
9538;BME280;4807;48.024;11.726;2023-01-27T04:45:03;94941.00;;;-0.98;83.55
9538;BME280;4807;48.024;11.726;2023-01-27T04:48:11;94943.94;;;-0.82;82.52
9538;BME280;4807;48.024;11.726;2023-01-27T04:51:22;94947.38;;;-0.81;82.05
9538;BME280;4807;48.024;11.726;2023-01-27T04:54:30;94942.16;;;-1.11;82.10
9538;BME280;4807;48.024;11.726;2023-01-27T04:57:39;94943.72;;;-1.30;83.67
9538;BME280;4807;48.024;11.726;2023-01-27T05:00:47;94940.72;;;-1.25;83.83
9538;BME280;4807;48.024;11.726;2023-01-27T05:03:56;94951.03;;;-1.24;84.46
9538;BME280;4807;48.024;11.726;2023-01-27T05:07:06;94949.13;;;-1.22;84.82
9538;BME280;4807;48.024;11.726;2023-01-27T05:10:14;94941.66;;;-1.05;83.66
9538;BME280;4807;48.024;11.726;2023-01-27T05:13:22;94942.44;;;-1.14;83.56
9538;BME280;4807;48.024;11.726;2023-01-27T05:16:31;94943.91;;;-1.22;83.35
9538;BME280;4807;48.024;11.726;2023-01-27T05:19:39;94942.44;;;-1.14;84.22
9538;BME280;4807;48.024;11.726;2023-01-27T05:22:49;94945.34;;;-1.29;83.56
9538;BME280;4807;48.024;11.726;2023-01-27T05:26:21;94950.09;;;-1.23;83.23
9538;BME280;4807;48.024;11.726;2023-01-27T05:29:30;94956.44;;;-1.36;83.34
9538;BME280;4807;48.024;11.726;2023-01-27T05:32:38;94951.16;;;-1.25;84.62
9538;BME280;4807;48.024;11.726;2023-01-27T05:35:46;94956.69;;;-1.19;83.42
9538;BME280;4807;48.024;11.726;2023-01-27T05:38:58;94962.63;;;-1.17;84.26
9538;BME280;4807;48.024;11.726;2023-01-27T05:42:06;94965.59;;;-1.00;84.76
9538;BME280;4807;48.024;11.726;2023-01-27T05:45:15;94981.56;;;-0.94;83.83
9538;BME280;4807;48.024;11.726;2023-01-27T05:48:23;94980.22;;;-0.88;83.58
9538;BME280;4807;48.024;11.726;2023-01-27T05:51:35;94976.94;;;-0.81;83.67
9538;BME280;4807;48.024;11.726;2023-01-27T05:54:45;94967.63;;;-0.73;83.63
9538;BME280;4807;48.024;11.726;2023-01-27T05:57:56;94976.31;;;-0.73;82.90
9538;BME280;4807;48.024;11.726;2023-01-27T06:01:08;94978.94;;;-0.73;82.03
9538;BME280;4807;48.024;11.726;2023-01-27T06:04:16;94987.28;;;-0.79;81.92
9538;BME280;4807;48.024;11.726;2023-01-27T06:07:25;94989.63;;;-0.76;81.78
9538;BME280;4807;48.024;11.726;2023-01-27T06:10:35;94983.31;;;-0.73;81.68
9538;BME280;4807;48.024;11.726;2023-01-27T06:13:43;94996.66;;;-0.77;81.55
9538;BME280;4807;48.024;11.726;2023-01-27T06:16:51;94998.44;;;-0.77;82.16
9538;BME280;4807;48.024;11.726;2023-01-27T06:20:00;94991.00;;;-0.72;81.76
9538;BME280;4807;48.024;11.726;2023-01-27T06:23:10;94997.66;;;-0.68;81.68
9538;BME280;4807;48.024;11.726;2023-01-27T06:26:20;94996.41;;;-0.64;81.63
9538;BME280;4807;48.024;11.726;2023-01-27T06:29:28;94999.00;;;-0.73;81.74
9538;BME280;4807;48.024;11.726;2023-01-27T06:32:37;94997.06;;;-0.71;80.20
9538;BME280;4807;48.024;11.726;2023-01-27T06:35:45;95000.47;;;-0.81;81.54
9538;BME280;4807;48.024;11.726;2023-01-27T06:38:54;95006.41;;;-0.79;82.00
9538;BME280;4807;48.024;11.726;2023-01-27T06:42:04;95003.59;;;-0.87;81.17
9538;BME280;4807;48.024;11.726;2023-01-27T06:45:13;95008.28;;;-0.90;81.58
9538;BME280;4807;48.024;11.726;2023-01-27T06:48:22;95015.47;;;-0.83;82.68
9538;BME280;4807;48.024;11.726;2023-01-27T06:51:30;95021.66;;;-1.04;81.82
9538;BME280;4807;48.024;11.726;2023-01-27T06:54:38;95015.94;;;-1.19;82.90
9538;BME280;4807;48.024;11.726;2023-01-27T06:57:51;95019.31;;;-1.28;83.30
9538;BME280;4807;48.024;11.726;2023-01-27T07:01:00;95031.69;;;-1.30;83.97
9538;BME280;4807;48.024;11.726;2023-01-27T07:04:09;95021.81;;;-1.27;83.23
9538;BME280;4807;48.024;11.726;2023-01-27T07:07:17;95028.06;;;-1.39;84.36
9538;BME280;4807;48.024;11.726;2023-01-27T07:10:26;95026.66;;;-1.43;84.38
9538;BME280;4807;48.024;11.726;2023-01-27T07:13:36;95013.47;;;-1.41;84.23
9538;BME280;4807;48.024;11.726;2023-01-27T07:16:44;95020.78;;;-1.35;84.47
9538;BME280;4807;48.024;11.726;2023-01-27T07:19:53;95022.31;;;-1.33;84.72
9538;BME280;4807;48.024;11.726;2023-01-27T07:23:03;95014.09;;;-1.28;83.97
9538;BME280;4807;48.024;11.726;2023-01-27T07:26:13;95006.72;;;-1.23;83.80
9538;BME280;4807;48.024;11.726;2023-01-27T07:29:32;95007.03;;;-1.17;83.34
9538;BME280;4807;48.024;11.726;2023-01-27T07:32:41;95011.13;;;-1.24;84.04
9538;BME280;4807;48.024;11.726;2023-01-27T07:35:49;95014.44;;;-1.22;83.96
9538;BME280;4807;48.024;11.726;2023-01-27T07:38:57;95022.13;;;-1.20;83.88
9538;BME280;4807;48.024;11.726;2023-01-27T07:42:07;95022.66;;;-1.05;84.08
9538;BME280;4807;48.024;11.726;2023-01-27T07:45:17;95020.59;;;-1.02;84.46
9538;BME280;4807;48.024;11.726;2023-01-27T07:48:26;95021.94;;;-1.07;83.85
9538;BME280;4807;48.024;11.726;2023-01-27T07:51:34;95020.72;;;-1.03;84.13
9538;BME280;4807;48.024;11.726;2023-01-27T07:54:43;95030.84;;;-1.10;84.88
9538;BME280;4807;48.024;11.726;2023-01-27T07:57:52;95032.41;;;-1.07;85.18
9538;BME280;4807;48.024;11.726;2023-01-27T08:01:05;95034.94;;;-1.17;84.60
9538;BME280;4807;48.024;11.726;2023-01-27T08:04:14;95030.72;;;-1.08;85.12
9538;BME280;4807;48.024;11.726;2023-01-27T08:07:23;95028.91;;;-0.87;85.84
9538;BME280;4807;48.024;11.726;2023-01-27T08:10:31;95033.91;;;-0.84;84.57
9538;BME280;4807;48.024;11.726;2023-01-27T08:13:41;95027.44;;;-0.80;83.71
9538;BME280;4807;48.024;11.726;2023-01-27T08:16:51;95034.25;;;-0.68;84.36
9538;BME280;4807;48.024;11.726;2023-01-27T08:20:00;95036.25;;;-0.51;83.44
9538;BME280;4807;48.024;11.726;2023-01-27T08:23:08;95033.28;;;-0.36;82.45
9538;BME280;4807;48.024;11.726;2023-01-27T08:26:16;95033.59;;;-0.20;82.10
9538;BME280;4807;48.024;11.726;2023-01-27T08:29:24;95028.25;;;0.00;80.30
9538;BME280;4807;48.024;11.726;2023-01-27T08:32:37;95032.72;;;0.19;80.26
9538;BME280;4807;48.024;11.726;2023-01-27T08:35:46;95032.03;;;0.36;79.90
9538;BME280;4807;48.024;11.726;2023-01-27T08:38:55;95040.31;;;0.32;78.40
9538;BME280;4807;48.024;11.726;2023-01-27T08:42:03;95041.69;;;0.36;79.14
9538;BME280;4807;48.024;11.726;2023-01-27T08:45:11;95041.97;;;0.23;78.21
9538;BME280;4807;48.024;11.726;2023-01-27T08:48:21;95053.41;;;0.22;78.34
9538;BME280;4807;48.024;11.726;2023-01-27T08:51:29;95053.25;;;0.14;78.94
9538;BME280;4807;48.024;11.726;2023-01-27T08:54:38;95054.19;;;0.13;78.15
9538;BME280;4807;48.024;11.726;2023-01-27T08:57:46;95060.53;;;0.11;78.42
9538;BME280;4807;48.024;11.726;2023-01-27T09:00:58;95062.97;;;-0.07;78.83
9538;BME280;4807;48.024;11.726;2023-01-27T09:04:08;95067.53;;;-0.09;78.20
9538;BME280;4807;48.024;11.726;2023-01-27T09:07:17;95054.06;;;0.05;78.57
9538;BME280;4807;48.024;11.726;2023-01-27T09:10:25;95059.31;;;0.34;79.18
9538;BME280;4807;48.024;11.726;2023-01-27T09:13:33;95065.00;;;0.77;78.41
9538;BME280;4807;48.024;11.726;2023-01-27T09:16:42;95055.63;;;0.75;76.63
9538;BME280;4807;48.024;11.726;2023-01-27T09:19:52;95061.41;;;0.79;76.26
9538;BME280;4807;48.024;11.726;2023-01-27T09:23:00;95057.44;;;0.65;76.34
9538;BME280;4807;48.024;11.726;2023-01-27T09:26:09;95062.66;;;0.84;76.78
9538;BME280;4807;48.024;11.726;2023-01-27T09:29:17;95064.69;;;1.09;75.29
9538;BME280;4807;48.024;11.726;2023-01-27T09:32:25;95066.72;;;1.25;74.69
9538;BME280;4807;48.024;11.726;2023-01-27T09:35:42;95073.91;;;1.23;74.15
9538;BME280;4807;48.024;11.726;2023-01-27T09:38:57;95071.72;;;0.99;73.97
9538;BME280;4807;48.024;11.726;2023-01-27T09:42:48;95083.31;;;1.06;74.44
9538;BME280;4807;48.024;11.726;2023-01-27T09:46:26;95093.25;;;0.74;74.89
9538;BME280;4807;48.024;11.726;2023-01-27T09:50:15;95081.56;;;0.78;75.29
9538;BME280;4807;48.024;11.726;2023-01-27T09:53:46;95080.56;;;1.08;75.62
9538;BME280;4807;48.024;11.726;2023-01-27T09:57:11;95076.94;;;1.38;73.81
9538;BME280;4807;48.024;11.726;2023-01-27T10:00:40;95082.09;;;1.57;72.52
9538;BME280;4807;48.024;11.726;2023-01-27T10:04:17;95086.28;;;1.50;71.56
9538;BME280;4807;48.024;11.726;2023-01-27T10:08:06;95084.13;;;1.17;72.95
9538;BME280;4807;48.024;11.726;2023-01-27T10:11:27;95079.19;;;0.94;73.57
9538;BME280;4807;48.024;11.726;2023-01-27T10:14:51;95081.97;;;0.83;73.37
9538;BME280;4807;48.024;11.726;2023-01-27T10:18:16;95085.53;;;0.92;74.58
9538;BME280;4807;48.024;11.726;2023-01-27T10:21:39;95083.09;;;0.81;74.57
9538;BME280;4807;48.024;11.726;2023-01-27T10:25:07;95078.94;;;0.88;74.19
9538;BME280;4807;48.024;11.726;2023-01-27T10:28:23;95086.09;;;0.76;73.95
9538;BME280;4807;48.024;11.726;2023-01-27T10:31:36;95081.44;;;0.89;74.32
9538;BME280;4807;48.024;11.726;2023-01-27T10:35:01;95088.31;;;0.81;74.67
9538;BME280;4807;48.024;11.726;2023-01-27T10:38:21;95092.16;;;0.67;74.19
9538;BME280;4807;48.024;11.726;2023-01-27T10:41:45;95090.75;;;0.44;74.53
9538;BME280;4807;48.024;11.726;2023-01-27T10:45:16;95085.25;;;0.37;74.95
9538;BME280;4807;48.024;11.726;2023-01-27T10:48:40;95087.97;;;0.16;76.14
9538;BME280;4807;48.024;11.726;2023-01-27T10:51:55;95082.88;;;0.15;77.23
9538;BME280;4807;48.024;11.726;2023-01-27T10:55:15;95093.47;;;0.13;77.41
9538;BME280;4807;48.024;11.726;2023-01-27T10:58:43;95086.28;;;0.06;77.92
9538;BME280;4807;48.024;11.726;2023-01-27T11:02:04;95088.78;;;0.17;78.69
9538;BME280;4807;48.024;11.726;2023-01-27T11:05:23;95094.53;;;0.01;78.41
9538;BME280;4807;48.024;11.726;2023-01-27T11:08:38;95089.44;;;-0.01;78.55
9538;BME280;4807;48.024;11.726;2023-01-27T11:11:49;95083.22;;;0.00;78.59
9538;BME280;4807;48.024;11.726;2023-01-27T11:15:01;95072.50;;;0.04;78.79
9538;BME280;4807;48.024;11.726;2023-01-27T11:18:25;95081.50;;;0.20;78.31
9538;BME280;4807;48.024;11.726;2023-01-27T11:21:35;95086.88;;;0.28;78.34
9538;BME280;4807;48.024;11.726;2023-01-27T11:24:51;95081.22;;;0.33;77.74
9538;BME280;4807;48.024;11.726;2023-01-27T11:28:13;95080.84;;;0.47;76.96
9538;BME280;4807;48.024;11.726;2023-01-27T11:31:38;95082.66;;;0.66;76.85
9538;BME280;4807;48.024;11.726;2023-01-27T11:35:02;95080.03;;;0.66;75.32
9538;BME280;4807;48.024;11.726;2023-01-27T11:38:16;95074.22;;;0.91;75.55
9538;BME280;4807;48.024;11.726;2023-01-27T11:41:26;95080.41;;;1.19;74.85
9538;BME280;4807;48.024;11.726;2023-01-27T11:44:35;95071.63;;;1.47;74.11
9538;BME280;4807;48.024;11.726;2023-01-27T11:47:48;95076.16;;;1.08;72.50
9538;BME280;4807;48.024;11.726;2023-01-27T11:51:00;95073.66;;;1.17;73.57
9538;BME280;4807;48.024;11.726;2023-01-27T11:54:15;95077.41;;;0.95;73.83
9538;BME280;4807;48.024;11.726;2023-01-27T11:57:26;95073.41;;;0.91;73.36
9538;BME280;4807;48.024;11.726;2023-01-27T12:00:42;95060.59;;;0.97;75.12
9538;BME280;4807;48.024;11.726;2023-01-27T12:03:58;95063.47;;;1.13;73.90
9538;BME280;4807;48.024;11.726;2023-01-27T12:07:17;95068.69;;;1.13;73.10
9538;BME280;4807;48.024;11.726;2023-01-27T12:10:32;95064.94;;;1.16;74.09
9538;BME280;4807;48.024;11.726;2023-01-27T12:13:53;95066.50;;;0.90;73.39
9538;BME280;4807;48.024;11.726;2023-01-27T12:17:05;95071.63;;;0.72;73.69
9538;BME280;4807;48.024;11.726;2023-01-27T12:20:36;95071.22;;;0.86;73.80
9538;BME280;4807;48.024;11.726;2023-01-27T12:23:51;95069.53;;;1.04;74.29
9538;BME280;4807;48.024;11.726;2023-01-27T12:27:03;95071.03;;;1.07;73.51
9538;BME280;4807;48.024;11.726;2023-01-27T12:30:21;95065.09;;;1.14;73.48
9538;BME280;4807;48.024;11.726;2023-01-27T12:33:32;95067.41;;;1.27;72.84
9538;BME280;4807;48.024;11.726;2023-01-27T12:36:43;95061.22;;;1.19;72.65
9538;BME280;4807;48.024;11.726;2023-01-27T12:40:00;95062.63;;;1.03;72.52
9538;BME280;4807;48.024;11.726;2023-01-27T12:43:13;95060.59;;;0.88;73.19
9538;BME280;4807;48.024;11.726;2023-01-27T12:46:24;95058.09;;;0.86;72.90
9538;BME280;4807;48.024;11.726;2023-01-27T12:49:36;95056.31;;;0.96;73.39
9538;BME280;4807;48.024;11.726;2023-01-27T12:52:53;95060.41;;;1.08;73.62
9538;BME280;4807;48.024;11.726;2023-01-27T12:56:15;95062.50;;;1.05;72.90
9538;BME280;4807;48.024;11.726;2023-01-27T12:59:25;95046.72;;;1.14;73.24
9538;BME280;4807;48.024;11.726;2023-01-27T13:02:34;95059.31;;;1.11;72.79
9538;BME280;4807;48.024;11.726;2023-01-27T13:05:43;95050.06;;;1.07;72.59
9538;BME280;4807;48.024;11.726;2023-01-27T13:08:52;95048.25;;;1.07;72.67
9538;BME280;4807;48.024;11.726;2023-01-27T13:12:11;95047.28;;;1.28;72.31
9538;BME280;4807;48.024;11.726;2023-01-27T13:15:24;95046.31;;;1.66;72.01
9538;BME280;4807;48.024;11.726;2023-01-27T13:18:36;95035.56;;;2.14;71.03
9538;BME280;4807;48.024;11.726;2023-01-27T13:21:50;95039.56;;;2.53;69.30
9538;BME280;4807;48.024;11.726;2023-01-27T13:25:03;95035.97;;;2.90;68.27
9538;BME280;4807;48.024;11.726;2023-01-27T13:28:20;95043.38;;;3.12;66.77
9538;BME280;4807;48.024;11.726;2023-01-27T13:31:40;95048.56;;;3.04;65.90
9538;BME280;4807;48.024;11.726;2023-01-27T13:35:01;95056.34;;;2.70;66.75
9538;BME280;4807;48.024;11.726;2023-01-27T13:38:24;95047.16;;;2.39;67.15
9538;BME280;4807;48.024;11.726;2023-01-27T13:41:43;95047.38;;;2.45;67.88
9538;BME280;4807;48.024;11.726;2023-01-27T13:45:02;95053.94;;;2.59;68.01
9538;BME280;4807;48.024;11.726;2023-01-27T13:48:19;95052.50;;;2.64;67.97
9538;BME280;4807;48.024;11.726;2023-01-27T13:51:32;95052.28;;;2.58;67.90
9538;BME280;4807;48.024;11.726;2023-01-27T13:54:44;95061.69;;;2.15;68.36
9538;BME280;4807;48.024;11.726;2023-01-27T13:58:05;95063.72;;;1.67;70.47
9538;BME280;4807;48.024;11.726;2023-01-27T14:01:26;95059.19;;;1.59;70.11
9538;BME280;4807;48.024;11.726;2023-01-27T14:04:56;95059.78;;;1.43;70.93
9538;BME280;4807;48.024;11.726;2023-01-27T14:08:32;95067.75;;;1.61;70.86
9538;BME280;4807;48.024;11.726;2023-01-27T14:11:52;95060.28;;;1.57;70.55
9538;BME280;4807;48.024;11.726;2023-01-27T14:15:21;95062.09;;;1.46;69.39
9538;BME280;4807;48.024;11.726;2023-01-27T14:18:38;95059.47;;;1.46;70.02
9538;BME280;4807;48.024;11.726;2023-01-27T14:21:57;95066.38;;;1.57;71.00
9538;BME280;4807;48.024;11.726;2023-01-27T14:25:19;95060.31;;;1.47;70.31
9538;BME280;4807;48.024;11.726;2023-01-27T14:28:48;95061.97;;;1.48;70.56
9538;BME280;4807;48.024;11.726;2023-01-27T14:32:11;95067.56;;;1.26;70.97
9538;BME280;4807;48.024;11.726;2023-01-27T14:35:39;95072.53;;;1.29;70.69
9538;BME280;4807;48.024;11.726;2023-01-27T14:39:02;95072.13;;;1.24;71.76
9538;BME280;4807;48.024;11.726;2023-01-27T14:42:17;95071.59;;;1.20;71.79
9538;BME280;4807;48.024;11.726;2023-01-27T14:45:34;95072.22;;;1.32;72.37
9538;BME280;4807;48.024;11.726;2023-01-27T14:48:59;95075.81;;;1.31;72.29
9538;BME280;4807;48.024;11.726;2023-01-27T14:52:33;95078.31;;;1.32;72.35
9538;BME280;4807;48.024;11.726;2023-01-27T14:55:51;95087.84;;;1.33;72.37
9538;BME280;4807;48.024;11.726;2023-01-27T14:59:14;95085.47;;;1.30;72.17
9538;BME280;4807;48.024;11.726;2023-01-27T15:02:42;95084.41;;;1.23;72.30
9538;BME280;4807;48.024;11.726;2023-01-27T15:06:01;95094.63;;;1.17;72.61
9538;BME280;4807;48.024;11.726;2023-01-27T15:09:37;95101.97;;;1.13;72.75
9538;BME280;4807;48.024;11.726;2023-01-27T15:13:29;95097.13;;;0.99;72.98
9538;BME280;4807;48.024;11.726;2023-01-27T15:16:54;95097.81;;;0.91;73.57
9538;BME280;4807;48.024;11.726;2023-01-27T15:20:49;95102.91;;;0.83;74.13
9538;BME280;4807;48.024;11.726;2023-01-27T15:24:45;95102.91;;;0.73;74.20
9538;BME280;4807;48.024;11.726;2023-01-27T15:28:00;95110.94;;;0.72;74.80
9538;BME280;4807;48.024;11.726;2023-01-27T15:31:25;95113.13;;;0.67;74.80
9538;BME280;4807;48.024;11.726;2023-01-27T15:34:34;95115.59;;;0.59;75.10
9538;BME280;4807;48.024;11.726;2023-01-27T15:37:58;95112.56;;;0.54;76.09
9538;BME280;4807;48.024;11.726;2023-01-27T15:41:11;95110.75;;;0.45;75.74
9538;BME280;4807;48.024;11.726;2023-01-27T15:44:32;95109.25;;;0.32;75.36
9538;BME280;4807;48.024;11.726;2023-01-27T15:47:45;95120.94;;;0.28;75.58
9538;BME280;4807;48.024;11.726;2023-01-27T15:50:59;95120.78;;;0.20;76.55
9538;BME280;4807;48.024;11.726;2023-01-27T15:54:16;95117.19;;;0.21;76.98
9538;BME280;4807;48.024;11.726;2023-01-27T15:57:32;95136.72;;;0.17;77.44
9538;BME280;4807;48.024;11.726;2023-01-27T16:00:49;95131.50;;;0.08;77.35
9538;BME280;4807;48.024;11.726;2023-01-27T16:04:10;95129.00;;;0.06;76.91
9538;BME280;4807;48.024;11.726;2023-01-27T16:07:28;95126.38;;;0.06;77.71
9538;BME280;4807;48.024;11.726;2023-01-27T16:10:40;95133.78;;;0.01;78.67
9538;BME280;4807;48.024;11.726;2023-01-27T16:13:51;95138.06;;;0.02;77.95
9538;BME280;4807;48.024;11.726;2023-01-27T16:17:07;95139.72;;;0.03;78.12
9538;BME280;4807;48.024;11.726;2023-01-27T16:20:23;95139.44;;;-0.04;77.83
9538;BME280;4807;48.024;11.726;2023-01-27T16:23:43;95136.94;;;-0.05;78.25
9538;BME280;4807;48.024;11.726;2023-01-27T16:27:06;95135.56;;;0.00;77.57
9538;BME280;4807;48.024;11.726;2023-01-27T16:30:20;95132.66;;;-0.06;78.02
9538;BME280;4807;48.024;11.726;2023-01-27T16:33:36;95139.00;;;-0.09;78.58
9538;BME280;4807;48.024;11.726;2023-01-27T16:36:46;95149.59;;;-0.10;78.27
9538;BME280;4807;48.024;11.726;2023-01-27T16:39:59;95142.59;;;-0.10;79.24
9538;BME280;4807;48.024;11.726;2023-01-27T16:43:17;95147.00;;;-0.10;78.47
9538;BME280;4807;48.024;11.726;2023-01-27T16:46:33;95141.88;;;-0.12;77.86
9538;BME280;4807;48.024;11.726;2023-01-27T16:49:42;95142.13;;;-0.24;78.51
9538;BME280;4807;48.024;11.726;2023-01-27T16:52:51;95143.78;;;-0.44;79.10
9538;BME280;4807;48.024;11.726;2023-01-27T16:56:03;95143.81;;;-0.65;79.46
9538;BME280;4807;48.024;11.726;2023-01-27T16:59:21;95144.31;;;-0.71;80.37
9538;BME280;4807;48.024;11.726;2023-01-27T17:02:32;95145.13;;;-0.70;80.60
9538;BME280;4807;48.024;11.726;2023-01-27T17:05:42;95145.72;;;-0.67;80.33
9538;BME280;4807;48.024;11.726;2023-01-27T17:08:58;95158.81;;;-0.67;80.19
9538;BME280;4807;48.024;11.726;2023-01-27T17:12:28;95160.75;;;-0.80;80.04
9538;BME280;4807;48.024;11.726;2023-01-27T17:15:39;95163.16;;;-0.88;80.85
9538;BME280;4807;48.024;11.726;2023-01-27T17:18:52;95162.94;;;-0.85;80.61
9538;BME280;4807;48.024;11.726;2023-01-27T17:22:06;95167.31;;;-0.86;82.14
9538;BME280;4807;48.024;11.726;2023-01-27T17:25:26;95166.31;;;-0.73;80.59
9538;BME280;4807;48.024;11.726;2023-01-27T17:28:36;95171.41;;;-0.72;81.50
9538;BME280;4807;48.024;11.726;2023-01-27T17:31:45;95173.78;;;-0.69;82.55